createdAt,value
2023-03-02T00:01:48.901Z,7.13
2023-03-02T00:04:21.314Z,7.13
2023-03-02T00:06:49.106Z,7.85
2023-03-02T00:09:17.001Z,7.40
2023-03-02T00:11:45.369Z,7.68
2023-03-02T00:14:12.081Z,7.45
2023-03-02T00:16:40.199Z,6.95
2023-03-02T00:19:06.978Z,7.18
2023-03-02T00:21:33.679Z,6.55
2023-03-02T00:24:00.444Z,7.38
2023-03-02T00:26:27.128Z,7.28
2023-03-02T00:28:53.954Z,7.25
2023-03-02T00:31:21.000Z,7.10
2023-03-02T00:33:48.758Z,7.05
2023-03-02T00:36:19.153Z,7.72
2023-03-02T00:38:45.964Z,6.88
2023-03-02T00:41:13.917Z,6.90
2023-03-02T00:43:40.957Z,7.32
2023-03-02T00:46:11.726Z,7.00
2023-03-02T00:48:38.515Z,7.18
2023-03-02T00:51:07.091Z,6.60
2023-03-02T00:53:35.129Z,7.32
2023-03-02T00:56:03.125Z,7.40
2023-03-02T00:58:32.071Z,6.90
2023-03-02T01:01:00.129Z,7.53
2023-03-02T01:03:27.264Z,6.68
2023-03-02T01:05:55.340Z,6.47
2023-03-02T01:08:23.461Z,6.72
2023-03-02T01:10:50.275Z,7.55
2023-03-02T01:13:18.115Z,6.95
2023-03-02T01:15:44.991Z,6.75
2023-03-02T01:18:13.109Z,7.43
2023-03-02T01:20:39.869Z,6.50
2023-03-02T01:23:06.648Z,6.95
2023-03-02T01:25:33.413Z,6.93
2023-03-02T01:28:00.298Z,6.80
2023-03-02T01:30:27.670Z,6.28
2023-03-02T01:32:54.384Z,6.85
2023-03-02T01:35:21.172Z,6.55
2023-03-02T01:37:47.859Z,7.07
2023-03-02T01:40:14.762Z,6.93
2023-03-02T01:42:50.544Z,6.18
2023-03-02T01:45:55.237Z,6.72
2023-03-02T01:48:52.728Z,6.20
2023-03-02T01:51:29.049Z,6.60
2023-03-02T01:54:06.763Z,7.00
2023-03-02T01:56:36.573Z,6.78
2023-03-02T01:59:09.744Z,6.85
2023-03-02T02:01:38.591Z,5.97
2023-03-02T02:04:06.472Z,6.93
2023-03-02T02:06:48.171Z,6.57
2023-03-02T02:09:17.503Z,6.43
2023-03-02T02:11:44.371Z,6.70
2023-03-02T02:14:11.342Z,6.65
2023-03-02T02:16:38.808Z,6.40
2023-03-02T02:19:16.096Z,6.70
2023-03-02T02:21:42.865Z,6.15
2023-03-02T02:24:28.712Z,6.65
2023-03-02T02:26:56.401Z,6.13
2023-03-02T02:29:38.637Z,6.43
2023-03-02T02:32:14.645Z,6.95
2023-03-02T02:34:46.511Z,6.53
2023-03-02T02:37:22.844Z,6.70
2023-03-02T02:39:50.457Z,6.40
2023-03-02T02:42:23.989Z,6.28
2023-03-02T02:44:51.946Z,6.90
2023-03-02T02:47:20.242Z,6.95
2023-03-02T02:49:49.073Z,6.63
2023-03-02T02:52:18.355Z,6.53
2023-03-02T02:54:49.322Z,6.60
2023-03-02T02:57:17.899Z,5.65
2023-03-02T02:59:49.565Z,6.35
2023-03-02T03:02:26.116Z,6.32
2023-03-02T03:05:02.505Z,6.63
2023-03-02T03:07:32.283Z,6.65
2023-03-02T03:10:19.125Z,6.55
2023-03-02T03:12:46.623Z,6.43
2023-03-02T03:15:14.278Z,6.40
2023-03-02T03:17:41.038Z,6.68
2023-03-02T03:20:09.363Z,6.70
2023-03-02T03:22:40.811Z,7.00
2023-03-02T03:25:10.111Z,6.38
2023-03-02T03:27:36.793Z,6.82
2023-03-02T03:30:05.522Z,6.40
2023-03-02T03:32:35.487Z,6.00
2023-03-02T03:35:03.654Z,6.32
2023-03-02T03:37:32.579Z,6.43
2023-03-02T03:39:59.887Z,6.82
2023-03-02T03:42:27.035Z,6.65
2023-03-02T03:44:55.188Z,6.22
2023-03-02T03:47:22.483Z,5.95
2023-03-02T03:49:50.569Z,6.22
2023-03-02T03:52:17.633Z,7.32
2023-03-02T03:54:44.527Z,6.60
2023-03-02T03:57:12.415Z,6.35
2023-03-02T03:59:39.880Z,6.50
2023-03-02T04:02:06.879Z,6.15
2023-03-02T04:04:39.963Z,6.18
2023-03-02T04:07:11.545Z,6.25
2023-03-02T04:09:39.290Z,7.65
2023-03-02T04:12:08.935Z,6.20
2023-03-02T04:14:36.681Z,6.18
2023-03-02T04:17:05.472Z,6.03
2023-03-02T04:19:35.801Z,6.10
2023-03-02T04:22:04.229Z,6.25
2023-03-02T04:24:32.431Z,7.03
2023-03-02T04:27:02.025Z,6.47
2023-03-02T04:29:29.657Z,6.18
2023-03-02T04:31:56.787Z,6.07
2023-03-02T04:34:26.467Z,6.45
2023-03-02T04:36:53.762Z,6.32
2023-03-02T04:39:20.986Z,6.72
2023-03-02T04:41:51.279Z,5.75
2023-03-02T04:44:18.790Z,6.93
2023-03-02T04:46:46.591Z,6.82
2023-03-02T04:49:15.200Z,6.95
2023-03-02T04:51:44.967Z,6.13
2023-03-02T04:54:17.008Z,6.60
2023-03-02T04:56:43.837Z,6.22
2023-03-02T04:59:10.630Z,6.65
2023-03-02T05:01:37.482Z,6.32
2023-03-02T05:04:04.638Z,5.80
2023-03-02T05:06:31.890Z,6.00
2023-03-02T05:09:00.204Z,5.70
2023-03-02T05:11:27.023Z,6.70
2023-03-02T05:13:56.194Z,6.47
2023-03-02T05:16:24.287Z,5.78
2023-03-02T05:18:51.734Z,6.78
2023-03-02T05:21:19.120Z,5.50
2023-03-02T05:23:47.116Z,5.90
2023-03-02T05:26:14.850Z,6.13
2023-03-02T05:28:42.150Z,5.90
2023-03-02T05:31:10.162Z,5.68
2023-03-02T05:33:36.859Z,6.47
2023-03-02T05:36:03.762Z,6.00
2023-03-02T05:38:31.724Z,5.70
2023-03-02T05:40:58.506Z,5.93
2023-03-02T05:43:25.239Z,6.18
2023-03-02T05:45:52.004Z,5.35
2023-03-02T05:48:18.864Z,5.80
2023-03-02T05:50:45.619Z,5.03
2023-03-02T05:53:12.387Z,5.10
2023-03-02T05:55:39.091Z,6.68
2023-03-02T05:58:13.052Z,5.80
2023-03-02T06:00:40.019Z,5.63
2023-03-02T06:03:06.721Z,5.55
2023-03-02T06:05:33.487Z,5.50
2023-03-02T06:08:00.479Z,5.72
2023-03-02T06:10:27.565Z,6.38
2023-03-02T06:12:54.495Z,5.40
2023-03-02T06:15:21.230Z,5.50
2023-03-02T06:17:48.377Z,6.68
2023-03-02T06:20:15.652Z,5.63
2023-03-02T06:22:47.050Z,5.93
2023-03-02T06:25:17.997Z,4.85
2023-03-02T06:27:45.045Z,6.00
2023-03-02T06:30:15.607Z,6.00
2023-03-02T06:32:43.258Z,5.95
2023-03-02T06:35:10.784Z,5.75
2023-03-02T06:37:37.553Z,5.55
2023-03-02T06:40:08.849Z,5.40
2023-03-02T06:42:35.827Z,5.63
2023-03-02T06:45:02.675Z,6.35
2023-03-02T06:47:29.459Z,6.28
2023-03-02T06:49:57.066Z,5.60
2023-03-02T06:52:23.877Z,5.85
2023-03-02T06:54:50.523Z,5.22
2023-03-02T06:57:17.247Z,5.88
2023-03-02T06:59:43.909Z,5.82
2023-03-02T07:02:11.436Z,5.68
2023-03-02T07:04:38.297Z,5.78
2023-03-02T07:07:05.446Z,6.00
2023-03-02T07:09:35.202Z,5.70
2023-03-02T07:12:02.145Z,5.70
2023-03-02T07:14:29.002Z,5.68
2023-03-02T07:16:57.579Z,6.15
2023-03-02T07:19:24.609Z,5.32
2023-03-02T07:21:51.312Z,5.70
2023-03-02T07:24:18.093Z,5.55
2023-03-02T07:26:44.944Z,5.30
2023-03-02T07:29:11.775Z,5.35
2023-03-02T07:31:39.710Z,5.57
2023-03-02T07:34:06.464Z,5.25
2023-03-02T07:36:33.172Z,5.65
2023-03-02T07:38:59.818Z,5.97
2023-03-02T07:41:26.591Z,6.05
2023-03-02T07:43:53.342Z,6.07
2023-03-02T07:46:20.181Z,4.90
2023-03-02T07:48:46.987Z,6.10
2023-03-02T07:51:13.777Z,5.57
2023-03-02T07:53:40.452Z,6.10
2023-03-02T07:56:09.296Z,5.25
2023-03-02T07:58:37.886Z,5.63
2023-03-02T08:01:05.027Z,11.00
2023-03-02T08:03:31.768Z,7.00
2023-03-02T08:05:58.516Z,6.45
2023-03-02T08:08:25.228Z,5.63
2023-03-02T08:10:52.676Z,6.33
2023-03-02T08:13:19.489Z,5.37
2023-03-02T08:15:46.338Z,5.27
2023-03-02T08:18:16.945Z,6.40
2023-03-02T08:20:46.596Z,5.83
2023-03-02T08:23:13.357Z,6.13
2023-03-02T08:25:42.986Z,6.53
2023-03-02T08:28:09.818Z,5.73
2023-03-02T08:30:36.591Z,5.77
2023-03-02T08:33:06.965Z,5.83
2023-03-02T08:35:34.043Z,5.80
2023-03-02T08:38:00.887Z,5.47
2023-03-02T08:40:27.721Z,6.60
2023-03-02T08:42:57.530Z,5.70
2023-03-02T08:45:24.689Z,6.70
2023-03-02T08:47:54.194Z,6.10
2023-03-02T08:50:21.674Z,6.93
2023-03-02T08:52:49.982Z,5.90
2023-03-02T08:55:18.654Z,6.20
2023-03-02T08:57:45.424Z,6.13
2023-03-02T09:00:14.845Z,5.83
2023-03-02T09:02:41.878Z,5.40
2023-03-02T09:05:09.191Z,6.50
2023-03-02T09:07:36.065Z,6.57
2023-03-02T09:10:03.105Z,6.20
2023-03-02T09:12:30.011Z,6.40
2023-03-02T09:14:56.794Z,6.40
2023-03-02T09:17:23.546Z,5.27
2023-03-02T09:19:50.284Z,6.13
2023-03-02T09:22:17.613Z,6.40
2023-03-02T09:24:44.334Z,6.23
2023-03-02T09:27:11.693Z,6.53
2023-03-02T09:29:38.708Z,7.30
2023-03-02T09:32:05.917Z,6.67
2023-03-02T09:34:32.774Z,6.37
2023-03-02T09:36:59.535Z,6.27
2023-03-02T09:39:26.399Z,6.00
2023-03-02T09:42:08.374Z,6.97
2023-03-02T09:44:56.665Z,6.17
2023-03-02T09:47:36.085Z,6.43
2023-03-02T09:50:12.118Z,6.30
2023-03-02T09:52:45.123Z,6.20
2023-03-02T09:55:28.884Z,6.70
2023-03-02T09:57:56.138Z,6.70
2023-03-02T10:00:31.250Z,6.30
2023-03-02T10:03:16.667Z,6.30
2023-03-02T10:05:49.816Z,6.60
2023-03-02T10:08:29.933Z,6.67
2023-03-02T10:11:08.858Z,6.97
2023-03-02T10:13:49.291Z,7.07
2023-03-02T10:16:23.962Z,6.70
2023-03-02T10:19:05.865Z,6.53
2023-03-02T10:21:40.666Z,6.07
2023-03-02T10:24:21.750Z,6.93
2023-03-02T10:26:53.727Z,7.30
2023-03-02T10:29:20.396Z,6.87
2023-03-02T10:31:50.003Z,7.10
2023-03-02T10:34:16.748Z,6.57
2023-03-02T10:36:47.641Z,7.23
2023-03-02T10:39:15.943Z,7.83
2023-03-02T10:41:53.554Z,7.60
2023-03-02T10:44:32.193Z,7.80
2023-03-02T10:46:59.385Z,8.20
2023-03-02T10:49:36.658Z,7.87
2023-03-02T10:52:13.374Z,7.50
2023-03-02T10:54:40.279Z,7.40
2023-03-02T10:57:39.937Z,8.03
2023-03-02T11:00:21.978Z,8.30
2023-03-02T11:03:12.238Z,7.83
2023-03-02T11:05:40.075Z,8.07
2023-03-02T11:08:10.195Z,8.57
2023-03-02T11:10:42.195Z,8.40
2023-03-02T11:13:23.805Z,8.03
2023-03-02T11:15:52.343Z,7.93
2023-03-02T11:18:37.176Z,8.17
2023-03-02T11:21:06.985Z,8.50
2023-03-02T11:23:33.766Z,7.60
2023-03-02T11:26:06.604Z,8.20
2023-03-02T11:28:49.770Z,8.23
2023-03-02T11:31:43.224Z,8.40
2023-03-02T11:34:18.335Z,9.03
2023-03-02T11:37:03.825Z,8.27
2023-03-02T11:39:59.188Z,8.80
2023-03-02T11:42:29.536Z,7.67
2023-03-02T11:44:57.122Z,8.27
2023-03-02T11:47:24.051Z,8.23
2023-03-02T11:50:01.932Z,8.47
2023-03-02T11:52:31.076Z,9.27
2023-03-02T11:55:06.944Z,8.20
2023-03-02T11:57:38.684Z,8.57
2023-03-02T12:00:34.102Z,8.93
2023-03-02T12:03:03.697Z,8.00
2023-03-02T12:05:36.478Z,7.97
2023-03-02T12:08:07.102Z,8.53
2023-03-02T12:10:42.584Z,8.20
2023-03-02T12:13:21.690Z,8.20
2023-03-02T12:15:56.017Z,7.80
2023-03-02T12:18:22.860Z,9.20
2023-03-02T12:21:00.975Z,9.00
2023-03-02T12:23:29.044Z,8.40
2023-03-02T12:26:25.580Z,8.57
2023-03-02T12:29:15.757Z,8.73
2023-03-02T12:31:54.773Z,8.30
2023-03-02T12:34:26.466Z,8.60
2023-03-02T12:37:00.674Z,9.00
2023-03-02T12:39:30.801Z,8.80
2023-03-02T12:42:06.441Z,8.40
2023-03-02T12:45:02.453Z,9.00
2023-03-02T12:47:30.250Z,9.37
2023-03-02T12:50:01.314Z,9.33
2023-03-02T12:52:33.802Z,11.37
2023-03-02T12:55:21.370Z,11.77
2023-03-02T12:57:50.347Z,11.73
2023-03-02T13:00:20.385Z,11.80
2023-03-02T13:02:49.577Z,13.80
2023-03-02T13:05:25.210Z,13.73
2023-03-02T13:08:00.964Z,13.43
2023-03-02T13:10:42.123Z,13.07
2023-03-02T13:13:35.184Z,12.27
2023-03-02T13:16:06.152Z,12.47
2023-03-02T13:18:34.993Z,12.63
2023-03-02T13:21:03.682Z,11.80
2023-03-02T13:23:32.458Z,12.00
2023-03-02T13:26:01.818Z,10.47
2023-03-02T13:28:30.148Z,9.53
2023-03-02T13:31:04.298Z,9.73
2023-03-02T13:33:32.621Z,9.37
2023-03-02T13:35:59.702Z,9.67
2023-03-02T13:38:32.789Z,9.60
2023-03-02T13:40:59.561Z,9.33
2023-03-02T13:43:26.364Z,8.73
2023-03-02T13:45:58.814Z,9.00
2023-03-02T13:48:27.804Z,8.60
2023-03-02T13:51:15.320Z,9.07
2023-03-02T13:53:46.504Z,9.50
2023-03-02T13:56:15.242Z,8.70
2023-03-02T13:58:42.086Z,9.20
2023-03-02T14:01:11.254Z,8.40
2023-03-02T14:03:37.916Z,8.10
2023-03-02T14:06:06.151Z,8.50
2023-03-02T14:08:32.918Z,8.17
2023-03-02T14:11:01.237Z,8.53
2023-03-02T14:13:51.123Z,8.93
2023-03-02T14:16:18.083Z,9.40
2023-03-02T14:18:47.183Z,8.97
2023-03-02T14:21:19.230Z,7.93
2023-03-02T14:23:46.873Z,9.37
2023-03-02T14:26:32.071Z,8.73
2023-03-02T14:29:10.704Z,8.57
2023-03-02T14:31:37.590Z,8.77
2023-03-02T14:34:04.310Z,8.63
2023-03-02T14:36:33.600Z,8.97
2023-03-02T14:39:04.168Z,9.27
2023-03-02T14:41:34.338Z,9.27
2023-03-02T14:44:05.184Z,8.73
2023-03-02T14:46:31.993Z,9.67
2023-03-02T14:48:58.838Z,8.77
2023-03-02T14:51:27.453Z,8.70
2023-03-02T14:53:55.481Z,8.33
2023-03-02T14:56:25.731Z,8.67
2023-03-02T14:58:53.328Z,9.23
2023-03-02T15:01:24.169Z,8.70
2023-03-02T15:03:50.971Z,8.17
2023-03-02T15:06:38.725Z,8.40
2023-03-02T15:09:05.769Z,8.90
2023-03-02T15:11:32.784Z,9.50
2023-03-02T15:13:59.822Z,10.13
2023-03-02T15:16:26.564Z,8.50
2023-03-02T15:18:53.980Z,9.07
2023-03-02T15:21:22.710Z,9.17
2023-03-02T15:23:49.662Z,9.13
2023-03-02T15:26:16.594Z,7.90
2023-03-02T15:28:45.767Z,8.80
2023-03-02T15:31:15.508Z,8.07
2023-03-02T15:33:43.238Z,8.30
2023-03-02T15:36:10.164Z,8.83
2023-03-02T15:38:37.203Z,8.63
2023-03-02T15:41:06.089Z,8.23
2023-03-02T15:43:33.146Z,8.40
2023-03-02T15:46:00.897Z,8.77
2023-03-02T15:48:29.034Z,8.27
2023-03-02T15:50:59.752Z,7.70
2023-03-02T15:53:27.155Z,8.33
2023-03-02T15:55:54.075Z,7.97
2023-03-02T15:58:22.050Z,9.17
2023-03-02T16:00:49.701Z,7.90
2023-03-02T16:03:16.908Z,8.23
2023-03-02T16:05:43.658Z,8.20
2023-03-02T16:08:10.550Z,9.33
2023-03-02T16:10:37.707Z,7.87
2023-03-02T16:13:05.916Z,7.53
2023-03-02T16:15:42.064Z,8.43
2023-03-02T16:18:10.087Z,8.73
2023-03-02T16:20:40.062Z,8.53
2023-03-02T16:23:08.245Z,7.77
2023-03-02T16:25:38.163Z,8.03
2023-03-02T16:28:04.975Z,8.30
2023-03-02T16:30:32.464Z,8.73
2023-03-02T16:33:00.759Z,7.60
2023-03-02T16:35:29.312Z,8.93
2023-03-02T16:37:56.197Z,8.27
2023-03-02T16:40:23.593Z,8.53
2023-03-02T16:42:51.171Z,8.30
2023-03-02T16:45:19.328Z,7.63
2023-03-02T16:47:46.554Z,8.73
2023-03-02T16:50:15.591Z,9.27
2023-03-02T16:52:42.578Z,8.37
2023-03-02T16:55:15.565Z,8.20
2023-03-02T16:57:43.083Z,8.97
2023-03-02T17:00:12.964Z,8.67
2023-03-02T17:02:39.914Z,8.40
2023-03-02T17:05:06.836Z,9.47
2023-03-02T17:07:34.120Z,9.53
2023-03-02T17:10:00.872Z,8.50
2023-03-02T17:12:27.810Z,9.73
2023-03-02T17:14:54.649Z,8.97
2023-03-02T17:17:21.510Z,8.83
2023-03-02T17:19:48.235Z,8.83
2023-03-02T17:22:15.244Z,7.80
2023-03-02T17:24:41.971Z,7.93
2023-03-02T17:27:23.804Z,8.07
2023-03-02T17:29:52.347Z,8.43
2023-03-02T17:32:19.424Z,7.93
2023-03-02T17:34:46.904Z,8.00
2023-03-02T17:37:14.130Z,8.23
2023-03-02T17:39:40.869Z,8.10
2023-03-02T17:42:10.185Z,7.93
2023-03-02T17:44:40.570Z,7.77
2023-03-02T17:47:10.022Z,7.23
2023-03-02T17:49:41.246Z,8.17
2023-03-02T17:52:07.988Z,8.67
2023-03-02T17:54:35.016Z,8.73
2023-03-02T17:57:05.117Z,7.23
2023-03-02T17:59:32.124Z,8.13
2023-03-02T18:01:58.979Z,8.77
2023-03-02T18:04:25.807Z,7.77
2023-03-02T18:06:54.119Z,9.43
2023-03-02T18:09:20.895Z,9.33
2023-03-02T18:11:48.576Z,9.53
2023-03-02T18:14:19.087Z,9.70
2023-03-02T18:16:46.481Z,9.57
2023-03-02T18:19:13.804Z,9.47
2023-03-02T18:21:41.867Z,9.60
2023-03-02T18:24:09.332Z,9.67
2023-03-02T18:26:36.231Z,9.63
2023-03-02T18:29:03.004Z,9.60
2023-03-02T18:31:31.438Z,9.27
2023-03-02T18:33:59.048Z,9.23
2023-03-02T18:36:25.748Z,9.37
2023-03-02T18:38:53.946Z,9.70
2023-03-02T18:41:22.107Z,9.70
2023-03-02T18:43:49.334Z,9.23
2023-03-02T18:46:24.994Z,9.27
2023-03-02T18:48:52.879Z,9.30
2023-03-02T18:51:22.657Z,9.53
2023-03-02T18:53:51.140Z,9.53
2023-03-02T18:56:18.618Z,8.47
2023-03-02T18:58:47.359Z,9.77
2023-03-02T19:01:14.186Z,8.70
2023-03-02T19:03:41.880Z,8.60
2023-03-02T19:06:09.115Z,8.80
2023-03-02T19:08:36.160Z,8.77
2023-03-02T19:11:04.719Z,8.57
2023-03-02T19:13:31.535Z,9.40
2023-03-02T19:15:58.737Z,8.43
2023-03-02T19:18:26.125Z,8.80
2023-03-02T19:20:54.338Z,9.03
2023-03-02T19:23:21.471Z,9.87
2023-03-02T19:25:49.801Z,8.87
2023-03-02T19:28:16.755Z,9.13
2023-03-02T19:30:43.692Z,9.83
2023-03-02T19:33:10.893Z,9.60
2023-03-02T19:35:38.674Z,9.33
2023-03-02T19:38:06.896Z,9.63
2023-03-02T19:40:35.026Z,9.70
2023-03-02T19:43:02.464Z,10.03
2023-03-02T19:45:32.564Z,9.53
2023-03-02T19:48:00.699Z,9.33
2023-03-02T19:50:28.878Z,10.67
2023-03-02T19:52:57.554Z,9.73
2023-03-02T19:55:25.361Z,9.47
2023-03-02T19:57:59.788Z,9.87
2023-03-02T20:00:31.870Z,9.67
2023-03-02T20:02:59.964Z,9.47
2023-03-02T20:05:27.877Z,10.10
2023-03-02T20:07:54.960Z,10.57
2023-03-02T20:10:41.516Z,9.90
2023-03-02T20:13:09.605Z,9.80
2023-03-02T20:15:39.113Z,9.87
2023-03-02T20:18:11.822Z,9.50
2023-03-02T20:20:39.465Z,9.00
2023-03-02T20:23:06.897Z,9.73
2023-03-02T20:25:34.213Z,9.77
2023-03-02T20:28:05.650Z,9.77
2023-03-02T20:30:40.143Z,10.23
2023-03-02T20:33:08.543Z,9.37
2023-03-02T20:35:39.880Z,9.93
2023-03-02T20:38:10.479Z,9.13
2023-03-02T20:40:37.436Z,9.60
2023-03-02T20:43:05.357Z,9.67
2023-03-02T20:45:33.424Z,10.10
2023-03-02T20:48:00.619Z,10.23
2023-03-02T20:50:30.167Z,10.60
2023-03-02T20:52:57.099Z,10.17
2023-03-02T20:55:26.216Z,10.23
2023-03-02T20:57:54.498Z,10.47
2023-03-02T21:00:24.204Z,10.10
2023-03-02T21:02:51.078Z,11.07
2023-03-02T21:05:18.766Z,10.40
2023-03-02T21:07:45.819Z,8.93
2023-03-02T21:10:16.887Z,10.57
2023-03-02T21:12:44.425Z,10.73
2023-03-02T21:15:12.316Z,10.17
2023-03-02T21:17:39.142Z,9.93
2023-03-02T21:20:06.666Z,10.27
2023-03-02T21:22:33.842Z,10.87
2023-03-02T21:25:00.630Z,10.13
2023-03-02T21:27:27.457Z,10.40
2023-03-02T21:29:54.107Z,10.47
2023-03-02T21:32:21.131Z,11.20
2023-03-02T21:34:47.862Z,10.40
2023-03-02T21:37:14.740Z,10.77
2023-03-02T21:39:41.518Z,11.30
2023-03-02T21:42:08.221Z,9.93
2023-03-02T21:44:34.999Z,11.07
2023-03-02T21:47:01.734Z,11.10
2023-03-02T21:49:28.613Z,11.50
2023-03-02T21:51:55.322Z,10.77
2023-03-02T21:54:22.113Z,10.87
2023-03-02T21:56:49.172Z,11.77
2023-03-02T21:59:15.914Z,10.43
2023-03-02T22:01:44.252Z,10.70
2023-03-02T22:04:11.626Z,10.20
2023-03-02T22:06:38.376Z,10.33
2023-03-02T22:09:05.213Z,10.77
2023-03-02T22:11:35.203Z,11.17
2023-03-02T22:14:10.659Z,10.13
2023-03-02T22:16:39.447Z,11.03
2023-03-02T22:19:20.533Z,10.30
2023-03-02T22:21:48.369Z,11.17
2023-03-02T22:24:27.218Z,11.63
2023-03-02T22:26:56.936Z,10.20
2023-03-02T22:29:41.858Z,11.33
2023-03-02T22:32:20.335Z,11.37
2023-03-02T22:34:53.087Z,11.13
2023-03-02T22:37:25.607Z,11.77
2023-03-02T22:39:58.460Z,11.30
2023-03-02T22:42:27.142Z,11.17
2023-03-02T22:45:15.893Z,11.77
2023-03-02T22:47:51.530Z,11.23
2023-03-02T22:50:26.917Z,10.73
2023-03-02T22:52:59.914Z,11.23
2023-03-02T22:55:42.961Z,12.60
2023-03-02T22:58:27.916Z,12.20
2023-03-02T23:01:04.318Z,12.40
2023-03-02T23:03:38.545Z,13.50
2023-03-02T23:06:33.876Z,12.40
2023-03-02T23:09:07.261Z,12.27
2023-03-02T23:11:37.732Z,12.53
2023-03-02T23:14:28.725Z,12.50
2023-03-02T23:17:01.047Z,11.97
2023-03-02T23:19:30.132Z,12.03
2023-03-02T23:21:58.226Z,12.57
2023-03-02T23:24:25.694Z,12.73
2023-03-02T23:26:55.782Z,12.57
2023-03-02T23:29:22.931Z,12.50
2023-03-02T23:31:50.469Z,12.50
2023-03-02T23:34:17.422Z,12.70
2023-03-02T23:36:44.203Z,12.77
2023-03-02T23:39:11.359Z,13.00
2023-03-02T23:41:39.046Z,13.27
2023-03-02T23:44:07.398Z,13.70
2023-03-02T23:46:34.721Z,13.17
2023-03-02T23:49:01.501Z,12.93
2023-03-02T23:51:28.220Z,12.70
2023-03-02T23:53:55.205Z,12.70
2023-03-02T23:56:22.253Z,12.50
2023-03-02T23:58:49.210Z,13.60
